createdAt,value
2022-08-30T00:00:57.199Z,0.00
2022-08-30T00:01:57.245Z,0.00
2022-08-30T00:02:57.329Z,0.00
2022-08-30T00:03:57.234Z,0.00
2022-08-30T00:04:57.168Z,0.00
2022-08-30T00:05:57.140Z,0.00
2022-08-30T00:06:57.149Z,0.00
2022-08-30T00:07:57.154Z,0.00
2022-08-30T00:08:57.102Z,0.00
2022-08-30T00:09:57.114Z,0.00
2022-08-30T00:10:57.096Z,0.00
2022-08-30T00:11:57.065Z,0.00
2022-08-30T00:12:57.066Z,0.00
2022-08-30T00:13:57.088Z,0.00
2022-08-30T00:14:57.051Z,0.00
2022-08-30T00:15:57.077Z,0.00
2022-08-30T00:16:57.023Z,0.00
2022-08-30T00:17:57.002Z,0.00
2022-08-30T00:18:56.983Z,0.00
2022-08-30T00:19:57.042Z,0.00
2022-08-30T00:20:56.974Z,0.00
2022-08-30T00:21:56.967Z,0.00
2022-08-30T00:22:56.944Z,0.00
2022-08-30T00:23:56.948Z,0.00
2022-08-30T00:24:56.957Z,0.00
2022-08-30T00:25:56.913Z,0.00
2022-08-30T00:26:56.905Z,0.00
2022-08-30T00:27:56.881Z,0.00
2022-08-30T00:28:56.878Z,0.00
2022-08-30T00:29:56.874Z,0.00
2022-08-30T00:30:56.952Z,0.00
2022-08-30T00:31:56.854Z,0.00
2022-08-30T00:32:56.822Z,0.00
2022-08-30T00:33:56.831Z,0.00
2022-08-30T00:34:56.822Z,0.00
2022-08-30T00:35:56.797Z,0.00
2022-08-30T00:36:56.861Z,0.00
2022-08-30T00:37:56.773Z,0.00
2022-08-30T00:38:56.781Z,0.00
2022-08-30T00:39:56.780Z,0.00
2022-08-30T00:40:56.736Z,0.00
2022-08-30T00:41:56.750Z,0.00
2022-08-30T00:42:59.303Z,0.00
2022-08-30T00:43:56.719Z,0.00
2022-08-30T00:44:56.709Z,0.00
2022-08-30T00:45:56.716Z,0.00
2022-08-30T00:46:56.667Z,0.00
2022-08-30T00:47:56.736Z,0.00
2022-08-30T00:48:56.647Z,0.00
2022-08-30T00:49:56.626Z,0.00
2022-08-30T00:50:56.632Z,0.00
2022-08-30T00:51:56.610Z,0.00
2022-08-30T00:52:56.612Z,0.00
2022-08-30T00:53:56.654Z,0.00
2022-08-30T00:54:56.580Z,0.00
2022-08-30T00:55:56.571Z,0.00
2022-08-30T00:56:56.550Z,0.00
2022-08-30T00:57:56.536Z,0.00
2022-08-30T00:58:56.545Z,0.00
2022-08-30T00:59:56.548Z,0.00
2022-08-30T01:00:56.510Z,0.00
2022-08-30T01:01:56.559Z,0.00
2022-08-30T01:02:56.527Z,0.00
2022-08-30T01:03:56.482Z,0.00
2022-08-30T01:04:56.484Z,0.00
2022-08-30T01:05:56.450Z,0.00
2022-08-30T01:06:56.439Z,0.00
2022-08-30T01:07:56.439Z,0.00
2022-08-30T01:08:56.424Z,0.00
2022-08-30T01:09:56.403Z,0.00
2022-08-30T01:10:56.463Z,0.00
2022-08-30T01:11:56.381Z,0.00
2022-08-30T01:12:56.385Z,0.00
2022-08-30T01:13:56.401Z,0.00
2022-08-30T01:14:56.349Z,0.00
2022-08-30T01:15:56.436Z,0.00
2022-08-30T01:16:56.360Z,0.00
2022-08-30T01:17:56.324Z,0.00
2022-08-30T01:18:56.327Z,0.00
2022-08-30T01:19:56.300Z,0.00
2022-08-30T01:20:56.280Z,0.00
2022-08-30T01:21:56.290Z,0.00
2022-08-30T01:22:56.262Z,0.00
2022-08-30T01:23:56.242Z,0.00
2022-08-30T01:24:56.272Z,0.00
2022-08-30T01:25:56.214Z,0.00
2022-08-30T01:26:56.267Z,0.00
2022-08-30T01:27:56.204Z,0.00
2022-08-30T01:28:56.194Z,0.00
2022-08-30T01:29:56.176Z,0.00
2022-08-30T01:30:56.254Z,0.00
2022-08-30T01:31:56.143Z,0.00
2022-08-30T01:32:56.165Z,0.00
2022-08-30T01:33:56.126Z,0.00
2022-08-30T01:34:56.119Z,0.00
2022-08-30T01:35:56.100Z,0.00
2022-08-30T01:36:56.100Z,0.00
2022-08-30T01:37:56.073Z,0.00
2022-08-30T01:38:56.104Z,0.00
2022-08-30T01:39:56.292Z,0.00
2022-08-30T01:40:56.058Z,0.00
2022-08-30T01:41:56.042Z,0.00
2022-08-30T01:42:56.026Z,0.00
2022-08-30T01:43:56.012Z,0.00
2022-08-30T01:44:56.062Z,0.00
2022-08-30T01:45:56.060Z,0.00
2022-08-30T01:46:55.989Z,0.00
2022-08-30T01:47:55.964Z,0.00
2022-08-30T01:48:55.952Z,0.00
2022-08-30T01:49:55.948Z,0.00
2022-08-30T01:50:55.993Z,0.00
2022-08-30T01:52:00.549Z,0.00
2022-08-30T01:52:56.925Z,0.00
2022-08-30T01:53:55.890Z,0.00
2022-08-30T01:54:55.896Z,0.00
2022-08-30T01:55:55.871Z,0.00
2022-08-30T01:56:55.902Z,0.00
2022-08-30T01:57:55.863Z,0.00
2022-08-30T01:58:59.226Z,0.00
2022-08-30T01:59:56.858Z,0.00
2022-08-30T02:00:55.851Z,0.00
2022-08-30T02:01:55.811Z,0.00
2022-08-30T02:02:55.840Z,0.00
2022-08-30T02:03:55.856Z,0.00
2022-08-30T02:04:55.772Z,0.00
2022-08-30T02:05:55.795Z,0.00
2022-08-30T02:06:55.752Z,0.00
2022-08-30T02:07:55.777Z,0.00
2022-08-30T02:08:55.749Z,0.00
2022-08-30T02:09:55.718Z,0.00
2022-08-30T02:10:55.725Z,0.00
2022-08-30T02:11:55.688Z,0.00
2022-08-30T02:12:55.684Z,0.00
2022-08-30T02:13:55.717Z,0.00
2022-08-30T02:14:55.653Z,0.00
2022-08-30T02:15:55.670Z,0.00
2022-08-30T02:16:55.810Z,0.00
2022-08-30T02:17:55.625Z,0.00
2022-08-30T02:18:55.618Z,0.00
2022-08-30T02:19:55.658Z,0.00
2022-08-30T02:20:55.596Z,0.00
2022-08-30T02:21:55.579Z,0.00
2022-08-30T02:22:58.522Z,0.00
2022-08-30T02:23:56.551Z,0.00
2022-08-30T02:24:55.635Z,0.00
2022-08-30T02:25:55.537Z,0.00
2022-08-30T02:26:55.528Z,0.00
2022-08-30T02:27:55.506Z,0.00
2022-08-30T02:28:55.513Z,0.00
2022-08-30T02:29:55.505Z,0.00
2022-08-30T02:30:55.625Z,0.00
2022-08-30T02:31:55.460Z,0.00
2022-08-30T02:32:55.466Z,0.00
2022-08-30T02:33:55.445Z,0.00
2022-08-30T02:34:55.447Z,0.00
2022-08-30T02:35:55.421Z,0.00
2022-08-30T02:36:55.481Z,0.00
2022-08-30T02:37:55.396Z,0.00
2022-08-30T02:38:55.393Z,0.00
2022-08-30T02:39:55.383Z,0.00
2022-08-30T02:40:55.358Z,0.00
2022-08-30T02:41:55.401Z,0.00
2022-08-30T02:42:55.344Z,0.00
2022-08-30T02:43:55.323Z,0.00
2022-08-30T02:44:55.318Z,0.00
2022-08-30T02:45:55.325Z,0.00
2022-08-30T02:46:55.286Z,0.00
2022-08-30T02:47:55.339Z,0.00
2022-08-30T02:48:55.285Z,0.00
2022-08-30T02:49:55.252Z,0.00
2022-08-30T02:50:55.245Z,0.00
2022-08-30T02:51:55.231Z,0.00
2022-08-30T02:52:55.509Z,0.00
2022-08-30T02:53:55.395Z,0.00
2022-08-30T02:54:55.225Z,0.00
2022-08-30T02:55:55.190Z,0.00
2022-08-30T02:56:55.188Z,0.00
2022-08-30T02:57:55.166Z,0.00
2022-08-30T02:58:55.164Z,0.00
2022-08-30T02:59:55.202Z,0.00
2022-08-30T03:00:55.226Z,0.00
2022-08-30T03:01:55.124Z,0.00
2022-08-30T03:02:55.106Z,0.00
2022-08-30T03:03:55.247Z,0.00
2022-08-30T03:04:55.202Z,0.00
2022-08-30T03:05:55.070Z,0.00
2022-08-30T03:06:55.065Z,0.00
2022-08-30T03:07:55.051Z,0.00
2022-08-30T03:08:55.043Z,0.00
2022-08-30T03:09:55.026Z,0.00
2022-08-30T03:10:55.088Z,0.00
2022-08-30T03:11:55.006Z,0.00
2022-08-30T03:12:55.019Z,0.00
2022-08-30T03:13:54.997Z,0.00
2022-08-30T03:14:54.974Z,0.00
2022-08-30T03:15:54.957Z,0.00
2022-08-30T03:16:55.052Z,0.00
2022-08-30T03:17:54.961Z,0.00
2022-08-30T03:18:54.922Z,0.00
2022-08-30T03:19:54.914Z,0.00
2022-08-30T03:20:55.163Z,0.00
2022-08-30T03:21:55.030Z,0.00
2022-08-30T03:22:54.896Z,0.00
2022-08-30T03:23:54.877Z,0.00
2022-08-30T03:24:54.858Z,0.00
2022-08-30T03:25:54.844Z,0.00
2022-08-30T03:26:54.838Z,0.00
2022-08-30T03:27:54.869Z,0.00
2022-08-30T03:28:54.822Z,0.00
2022-08-30T03:29:54.796Z,0.00
2022-08-30T03:30:54.809Z,0.00
2022-08-30T03:31:54.852Z,0.00
2022-08-30T03:32:54.786Z,0.00
2022-08-30T03:33:54.786Z,0.00
2022-08-30T03:34:54.741Z,0.00
2022-08-30T03:35:54.737Z,0.00
2022-08-30T03:36:54.757Z,0.00
2022-08-30T03:37:56.161Z,0.00
2022-08-30T03:38:54.708Z,0.00
2022-08-30T03:39:54.726Z,0.00
2022-08-30T03:40:54.684Z,0.00
2022-08-30T03:41:54.713Z,0.00
2022-08-30T03:42:54.659Z,0.00
2022-08-30T03:43:59.977Z,0.00
2022-08-30T03:44:55.678Z,0.00
2022-08-30T03:45:54.652Z,0.00
2022-08-30T03:46:54.627Z,0.00
2022-08-30T03:47:54.617Z,0.00
2022-08-30T03:48:54.595Z,0.00
2022-08-30T03:49:54.586Z,0.00
2022-08-30T03:50:54.609Z,0.00
2022-08-30T03:51:54.571Z,0.00
2022-08-30T03:52:54.560Z,0.00
2022-08-30T03:53:54.538Z,0.00
2022-08-30T03:54:54.526Z,0.00
2022-08-30T03:55:54.545Z,0.00
2022-08-30T03:56:54.543Z,0.00
2022-08-30T03:57:54.514Z,0.00
2022-08-30T03:58:54.499Z,0.00
2022-08-30T03:59:54.475Z,0.00
2022-08-30T04:00:54.577Z,0.00
2022-08-30T04:01:54.501Z,0.00
2022-08-30T04:02:54.451Z,4.00
2022-08-30T04:03:54.455Z,4.00
2022-08-30T04:04:54.433Z,0.00
2022-08-30T04:05:54.428Z,0.00
2022-08-30T04:06:54.405Z,4.00
2022-08-30T04:07:54.460Z,0.00
2022-08-30T04:08:54.385Z,4.00
2022-08-30T04:09:54.384Z,4.00
2022-08-30T04:10:54.363Z,8.00
2022-08-30T04:11:54.346Z,8.00
2022-08-30T04:12:54.344Z,8.00
2022-08-30T04:13:54.385Z,12.00
2022-08-30T04:14:54.341Z,12.00
2022-08-30T04:15:54.306Z,16.00
2022-08-30T04:16:54.356Z,20.00
2022-08-30T04:17:54.293Z,24.00
2022-08-30T04:18:54.330Z,28.00
2022-08-30T04:19:54.302Z,32.00
2022-08-30T04:20:54.256Z,40.00
2022-08-30T04:21:54.247Z,44.00
2022-08-30T04:22:54.234Z,56.00
2022-08-30T04:23:54.238Z,60.00
2022-08-30T04:24:54.210Z,72.00
2022-08-30T04:25:54.301Z,80.00
2022-08-30T04:26:54.204Z,96.00
2022-08-30T04:27:54.176Z,104.00
2022-08-30T04:28:54.171Z,120.00
2022-08-30T04:29:54.187Z,132.00
2022-08-30T04:30:54.150Z,148.00
2022-08-30T04:31:54.185Z,164.00
2022-08-30T04:32:58.474Z,184.00
2022-08-30T04:33:54.122Z,208.00
2022-08-30T04:34:54.110Z,236.00
2022-08-30T04:35:54.102Z,264.00
2022-08-30T04:36:54.098Z,292.00
2022-08-30T04:37:54.082Z,316.00
2022-08-30T04:38:54.062Z,348.00
2022-08-30T04:39:54.102Z,384.00
2022-08-30T04:40:54.039Z,420.00
2022-08-30T04:41:54.027Z,464.00
2022-08-30T04:42:54.097Z,504.00
2022-08-30T04:43:54.019Z,544.00
2022-08-30T04:44:54.026Z,588.00
2022-08-30T04:45:54.050Z,640.00
2022-08-30T04:46:53.975Z,700.00
2022-08-30T04:47:53.966Z,756.00
2022-08-30T04:48:54.016Z,816.00
2022-08-30T04:49:53.944Z,876.00
2022-08-30T04:50:53.939Z,940.00
2022-08-30T04:51:53.946Z,1004.00
2022-08-30T04:52:53.915Z,1072.00
2022-08-30T04:53:53.929Z,1136.00
2022-08-30T04:54:53.900Z,1184.00
2022-08-30T04:55:53.883Z,1228.00
2022-08-30T04:56:53.879Z,1304.00
2022-08-30T04:57:53.875Z,1400.00
2022-08-30T04:58:53.848Z,1504.00
2022-08-30T04:59:53.892Z,1616.00
2022-08-30T05:00:53.909Z,1720.00
2022-08-30T05:01:53.934Z,1816.00
2022-08-30T05:02:53.818Z,1924.00
2022-08-30T05:03:53.798Z,2032.00
2022-08-30T05:04:53.782Z,2152.00
2022-08-30T05:05:53.808Z,2276.00
2022-08-30T05:06:53.763Z,2428.00
2022-08-30T05:07:53.759Z,2592.00
2022-08-30T05:08:53.753Z,2704.00
2022-08-30T05:09:53.733Z,2788.00
2022-08-30T05:10:53.729Z,2892.00
2022-08-30T05:11:53.739Z,3000.00
2022-08-30T05:12:53.725Z,3100.00
2022-08-30T05:13:53.692Z,3196.00
2022-08-30T05:14:53.707Z,3304.00
2022-08-30T05:15:54.246Z,3464.00
2022-08-30T05:16:53.707Z,3632.00
2022-08-30T05:17:53.649Z,3848.00
2022-08-30T05:18:53.642Z,4056.00
2022-08-30T05:19:53.634Z,4068.00
2022-08-30T05:20:53.615Z,4088.00
2022-08-30T05:21:53.611Z,4200.00
2022-08-30T05:22:54.198Z,4308.00
2022-08-30T05:23:53.579Z,4416.00
2022-08-30T05:24:53.582Z,4500.00
2022-08-30T05:25:53.570Z,4576.00
2022-08-30T05:26:53.564Z,4652.00
2022-08-30T05:27:53.558Z,4728.00
2022-08-30T05:28:53.556Z,4824.00
2022-08-30T05:29:53.538Z,4952.00
2022-08-30T05:30:53.503Z,5124.00
2022-08-30T05:31:53.543Z,5356.00
2022-08-30T05:32:53.492Z,5652.00
2022-08-30T05:33:53.493Z,6008.00
2022-08-30T05:34:53.466Z,6976.00
2022-08-30T05:35:53.453Z,8672.00
2022-08-30T05:36:53.457Z,9296.00
2022-08-30T05:37:53.429Z,9584.00
2022-08-30T05:38:53.471Z,9604.00
2022-08-30T05:39:53.408Z,10344.00
2022-08-30T05:40:53.397Z,13048.00
2022-08-30T05:41:53.463Z,13332.00
2022-08-30T05:42:53.376Z,13696.00
2022-08-30T05:43:53.363Z,15072.00
2022-08-30T05:44:53.394Z,15680.00
2022-08-30T05:45:53.347Z,14624.00
2022-08-30T05:46:53.333Z,13764.00
2022-08-30T05:47:53.318Z,14336.00
2022-08-30T05:48:53.307Z,17184.00
2022-08-30T05:49:53.292Z,18592.00
2022-08-30T05:50:53.312Z,17888.00
2022-08-30T05:51:53.274Z,18336.00
2022-08-30T05:52:53.286Z,20448.00
2022-08-30T05:53:53.248Z,22560.00
2022-08-30T05:54:53.238Z,22688.00
2022-08-30T05:55:53.232Z,20672.00
2022-08-30T05:56:53.237Z,20768.00
2022-08-30T05:57:53.217Z,18496.00
2022-08-30T05:58:53.201Z,12092.00
2022-08-30T05:59:53.182Z,9140.00
2022-08-30T06:00:53.169Z,9008.00
2022-08-30T06:01:53.266Z,9036.00
2022-08-30T06:02:53.188Z,9156.00
2022-08-30T06:03:53.135Z,9140.00
2022-08-30T06:04:53.121Z,9120.00
2022-08-30T06:05:53.107Z,9180.00
2022-08-30T06:06:53.109Z,9356.00
2022-08-30T06:07:53.116Z,9340.00
2022-08-30T06:08:53.073Z,9236.00
2022-08-30T06:09:53.059Z,9420.00
2022-08-30T06:10:53.073Z,9812.00
2022-08-30T06:11:53.038Z,10144.00
2022-08-30T06:12:53.034Z,10688.00
2022-08-30T06:13:53.067Z,10496.00
2022-08-30T06:14:53.536Z,10564.00
2022-08-30T06:15:53.046Z,10604.00
2022-08-30T06:16:52.979Z,10228.00
2022-08-30T06:17:52.976Z,10180.00
2022-08-30T06:18:52.980Z,10312.00
2022-08-30T06:19:52.943Z,10344.00
2022-08-30T06:20:52.953Z,10552.00
2022-08-30T06:21:52.930Z,10800.00
2022-08-30T06:22:52.909Z,11088.00
2022-08-30T06:23:52.903Z,11312.00
2022-08-30T06:24:57.474Z,11384.00
2022-08-30T06:25:53.872Z,11508.00
2022-08-30T06:26:52.875Z,11608.00
2022-08-30T06:27:56.044Z,20448.00
2022-08-30T06:28:52.856Z,12776.00
2022-08-30T06:29:52.827Z,17888.00
2022-08-30T06:30:52.900Z,13400.00
2022-08-30T06:31:52.808Z,22912.00
2022-08-30T06:32:52.801Z,24608.00
2022-08-30T06:33:52.784Z,18880.00
2022-08-30T06:34:52.769Z,13868.00
2022-08-30T06:35:59.214Z,20864.00
2022-08-30T06:36:53.753Z,22592.00
2022-08-30T06:37:52.738Z,29024.00
2022-08-30T06:38:52.728Z,29376.00
2022-08-30T06:39:52.710Z,31744.00
2022-08-30T06:40:52.717Z,32608.00
2022-08-30T06:41:52.725Z,35232.00
2022-08-30T06:42:52.681Z,37152.00
2022-08-30T06:43:52.732Z,34912.00
2022-08-30T06:44:52.655Z,36544.00
2022-08-30T06:45:52.648Z,37760.00
2022-08-30T06:46:52.762Z,38464.00
2022-08-30T06:47:52.659Z,38912.00
2022-08-30T06:48:52.613Z,39232.00
2022-08-30T06:49:52.603Z,38944.00
2022-08-30T06:50:52.584Z,40544.00
2022-08-30T06:51:52.580Z,40416.00
2022-08-30T06:52:52.589Z,40896.00
2022-08-30T06:53:52.557Z,40256.00
2022-08-30T06:54:52.547Z,42080.00
2022-08-30T06:55:52.539Z,41600.00
2022-08-30T06:56:58.474Z,39712.00
2022-08-30T06:57:53.548Z,42336.00
2022-08-30T06:58:52.504Z,43136.00
2022-08-30T06:59:57.038Z,44064.00
2022-08-30T07:00:52.493Z,45056.00
2022-08-30T07:01:52.500Z,45408.00
2022-08-30T07:02:52.528Z,45760.00
2022-08-30T07:03:52.479Z,46720.00
2022-08-30T07:04:52.444Z,47808.00
2022-08-30T07:05:52.425Z,49376.00
2022-08-30T07:06:52.422Z,49568.00
2022-08-30T07:07:52.402Z,47584.00
2022-08-30T07:08:56.189Z,42400.00
2022-08-30T07:09:52.392Z,46272.00
2022-08-30T07:10:52.375Z,44736.00
2022-08-30T07:11:52.370Z,45856.00
2022-08-30T07:12:52.350Z,47808.00
2022-08-30T07:13:52.349Z,52736.00
2022-08-30T07:14:52.361Z,55328.00
2022-08-30T07:15:52.386Z,56000.00
2022-08-30T07:16:52.392Z,55168.00
2022-08-30T07:17:52.294Z,52512.00
2022-08-30T07:18:52.300Z,51168.00
2022-08-30T07:19:52.280Z,52480.00
2022-08-30T07:20:52.292Z,54944.00
2022-08-30T07:21:52.252Z,55712.00
2022-08-30T07:22:52.250Z,53824.00
2022-08-30T07:23:53.618Z,57184.00
2022-08-30T07:24:52.233Z,58592.00
2022-08-30T07:25:52.210Z,44480.00
2022-08-30T07:26:52.510Z,68512.00
2022-08-30T07:27:52.193Z,66624.00
2022-08-30T07:28:55.762Z,60608.00
2022-08-30T07:29:52.180Z,68992.00
2022-08-30T07:30:52.180Z,65664.00
2022-08-30T07:31:52.164Z,65696.00
2022-08-30T07:32:52.146Z,61760.00
2022-08-30T07:33:52.140Z,41632.00
2022-08-30T07:34:52.114Z,31328.00
2022-08-30T07:35:52.105Z,29312.00
2022-08-30T07:36:52.138Z,28128.00
2022-08-30T07:37:52.127Z,37696.00
2022-08-30T07:38:52.077Z,26912.00
2022-08-30T07:39:52.060Z,27904.00
2022-08-30T07:40:52.052Z,29856.00
2022-08-30T07:41:52.073Z,63680.00
2022-08-30T07:42:52.084Z,61312.00
2022-08-30T07:43:52.022Z,40928.00
2022-08-30T07:44:56.497Z,61056.00
2022-08-30T07:45:52.000Z,36896.00
2022-08-30T07:46:52.128Z,35776.00
2022-08-30T07:47:51.980Z,33952.00
2022-08-30T07:48:51.983Z,45984.00
2022-08-30T07:49:51.954Z,29824.00
2022-08-30T07:50:56.380Z,25504.00
2022-08-30T07:51:52.931Z,61088.00
2022-08-30T07:52:51.934Z,66016.00
2022-08-30T07:53:51.995Z,42624.00
2022-08-30T07:54:53.009Z,58720.00
2022-08-30T07:55:51.921Z,51200.00
2022-08-30T07:56:52.598Z,29920.00
2022-08-30T07:57:51.976Z,30720.00
2022-08-30T07:58:51.918Z,27872.00
2022-08-30T07:59:51.850Z,28192.00
2022-08-30T08:00:51.842Z,27776.00
2022-08-30T08:01:52.004Z,27360.00
2022-08-30T08:02:51.882Z,27168.00
2022-08-30T08:03:51.852Z,40096.00
2022-08-30T08:04:51.801Z,24832.00
2022-08-30T08:05:51.789Z,25568.00
2022-08-30T08:06:51.778Z,22048.00
2022-08-30T08:07:51.766Z,20896.00
2022-08-30T08:08:51.775Z,20096.00
2022-08-30T08:09:51.789Z,19648.00
2022-08-30T08:10:51.786Z,27008.00
2022-08-30T08:11:51.725Z,20704.00
2022-08-30T08:12:52.216Z,21152.00
2022-08-30T08:13:54.084Z,22080.00
2022-08-30T08:14:51.703Z,22976.00
2022-08-30T08:15:51.811Z,24000.00
2022-08-30T08:16:51.670Z,56512.00
2022-08-30T08:17:51.656Z,74304.00
2022-08-30T08:18:51.643Z,77728.00
2022-08-30T08:19:51.664Z,74496.00
2022-08-30T08:20:51.631Z,72064.00
2022-08-30T08:22:15.270Z,75968.00
2022-08-30T08:22:52.628Z,71488.00
2022-08-30T08:23:51.638Z,68512.00
2022-08-30T08:24:51.606Z,68544.00
2022-08-30T08:25:51.575Z,72800.00
2022-08-30T08:26:51.575Z,70336.00
2022-08-30T08:27:51.573Z,69056.00
2022-08-30T08:28:51.582Z,68128.00
2022-08-30T08:29:51.550Z,68768.00
2022-08-30T08:30:51.572Z,60768.00
2022-08-30T08:31:51.509Z,54112.00
2022-08-30T08:32:51.523Z,26240.00
2022-08-30T08:33:51.578Z,62464.00
2022-08-30T08:34:51.496Z,66368.00
2022-08-30T08:35:51.468Z,63008.00
2022-08-30T08:36:51.459Z,69408.00
2022-08-30T08:37:51.461Z,70464.00
2022-08-30T08:38:51.500Z,70272.00
2022-08-30T08:39:51.429Z,72128.00
2022-08-30T08:40:51.429Z,72096.00
2022-08-30T08:41:51.426Z,69760.00
2022-08-30T08:42:51.438Z,63552.00
2022-08-30T08:43:51.409Z,65376.00
2022-08-30T08:44:54.543Z,70688.00
2022-08-30T08:45:51.451Z,67104.00
2022-08-30T08:46:51.393Z,67264.00
2022-08-30T08:47:51.356Z,63936.00
2022-08-30T08:48:59.875Z,63392.00
2022-08-30T08:49:52.349Z,66944.00
2022-08-30T08:50:51.314Z,66432.00
2022-08-30T08:51:51.322Z,68608.00
2022-08-30T08:52:51.299Z,66592.00
2022-08-30T08:53:51.320Z,69760.00
2022-08-30T08:54:51.283Z,70944.00
2022-08-30T08:55:51.275Z,73216.00
2022-08-30T08:56:51.265Z,71072.00
2022-08-30T08:57:51.265Z,69312.00
2022-08-30T08:58:51.236Z,70560.00
2022-08-30T08:59:51.268Z,70720.00
2022-08-30T09:00:51.226Z,72224.00
2022-08-30T09:01:51.334Z,72000.00
2022-08-30T09:02:55.569Z,72448.00
2022-08-30T09:03:51.184Z,70848.00
2022-08-30T09:04:51.277Z,70272.00
2022-08-30T09:05:51.164Z,73568.00
2022-08-30T09:06:51.157Z,74400.00
2022-08-30T09:07:51.148Z,76864.00
2022-08-30T09:08:51.160Z,76384.00
2022-08-30T09:09:51.158Z,74112.00
2022-08-30T09:10:51.406Z,72064.00
2022-08-30T09:11:51.131Z,75648.00
2022-08-30T09:12:51.169Z,75840.00
2022-08-30T09:13:51.095Z,71008.00
2022-08-30T09:14:51.103Z,68384.00
2022-08-30T09:15:54.896Z,75744.00
2022-08-30T09:16:51.067Z,77696.00
2022-08-30T09:17:51.071Z,77248.00
2022-08-30T09:18:54.675Z,72032.00
2022-08-30T09:19:51.041Z,72832.00
2022-08-30T09:20:51.082Z,74880.00
2022-08-30T09:21:52.910Z,76128.00
2022-08-30T09:22:51.006Z,77088.00
2022-08-30T09:23:51.010Z,77952.00
2022-08-30T09:24:50.981Z,78912.00
2022-08-30T09:25:51.019Z,79968.00
2022-08-30T09:26:50.994Z,80544.00
2022-08-30T09:27:50.951Z,79680.00
2022-08-30T09:28:50.948Z,80544.00
2022-08-30T09:29:50.931Z,77472.00
2022-08-30T09:30:50.972Z,75872.00
2022-08-30T09:31:52.955Z,70688.00
2022-08-30T09:32:51.943Z,77696.00
2022-08-30T09:33:50.892Z,77568.00
2022-08-30T09:34:50.883Z,78016.00
2022-08-30T09:35:50.887Z,82304.00
2022-08-30T09:36:50.886Z,83840.00
2022-08-30T09:37:50.865Z,81632.00
2022-08-30T09:38:50.845Z,85696.00
2022-08-30T09:39:50.835Z,80352.00
2022-08-30T09:40:50.841Z,79904.00
2022-08-30T09:41:50.914Z,77504.00
2022-08-30T09:42:50.829Z,84960.00
2022-08-30T09:43:50.800Z,73664.00
2022-08-30T09:44:50.794Z,84768.00
2022-08-30T09:45:50.810Z,60992.00
2022-08-30T09:46:50.950Z,84192.00
2022-08-30T09:47:50.850Z,69664.00
2022-08-30T09:48:50.808Z,83648.00
2022-08-30T09:49:50.749Z,82272.00
2022-08-30T09:50:50.744Z,85248.00
2022-08-30T09:51:51.722Z,83840.00
2022-08-30T09:52:55.085Z,82720.00
2022-08-30T09:54:07.153Z,80928.00
2022-08-30T09:54:51.724Z,80000.00
2022-08-30T09:55:50.683Z,79872.00
2022-08-30T09:56:50.716Z,78336.00
2022-08-30T09:57:50.708Z,73600.00
2022-08-30T09:58:50.659Z,79424.00
2022-08-30T09:59:50.653Z,81472.00
2022-08-30T10:00:50.942Z,38720.00
2022-08-30T10:01:50.631Z,31904.00
2022-08-30T10:02:50.629Z,43520.00
2022-08-30T10:03:50.642Z,29056.00
2022-08-30T10:04:50.616Z,29408.00
2022-08-30T10:05:50.640Z,27968.00
2022-08-30T10:06:50.667Z,61024.00
2022-08-30T10:07:50.572Z,64672.00
2022-08-30T10:08:50.563Z,27712.00
2022-08-30T10:09:50.550Z,25184.00
2022-08-30T10:10:50.565Z,25984.00
2022-08-30T10:11:50.568Z,29120.00
2022-08-30T10:12:50.549Z,34240.00
2022-08-30T10:13:51.510Z,25024.00
2022-08-30T10:14:50.505Z,71232.00
2022-08-30T10:15:50.518Z,65152.00
2022-08-30T10:16:50.524Z,65440.00
2022-08-30T10:17:50.483Z,47680.00
2022-08-30T10:18:50.462Z,41152.00
2022-08-30T10:19:50.457Z,33216.00
2022-08-30T10:20:50.457Z,58240.00
2022-08-30T10:21:50.443Z,76064.00
2022-08-30T10:22:50.452Z,44832.00
2022-08-30T10:23:50.447Z,36800.00
2022-08-30T10:24:50.412Z,53504.00
2022-08-30T10:25:50.427Z,64960.00
2022-08-30T10:26:50.388Z,39968.00
2022-08-30T10:27:50.371Z,36416.00
2022-08-30T10:28:50.487Z,36992.00
2022-08-30T10:29:50.359Z,37600.00
2022-08-30T10:30:50.357Z,36288.00
2022-08-30T10:31:50.338Z,37280.00
2022-08-30T10:32:50.321Z,38560.00
2022-08-30T10:33:50.325Z,41728.00
2022-08-30T10:34:50.342Z,42592.00
2022-08-30T10:35:50.329Z,42144.00
2022-08-30T10:36:50.287Z,64096.00
2022-08-30T10:37:50.272Z,48064.00
2022-08-30T10:38:50.290Z,37632.00
2022-08-30T10:39:50.251Z,53920.00
2022-08-30T10:40:50.237Z,37312.00
2022-08-30T10:41:50.305Z,33536.00
2022-08-30T10:42:50.239Z,32192.00
2022-08-30T10:43:51.111Z,30944.00
2022-08-30T10:44:50.197Z,29728.00
2022-08-30T10:45:51.172Z,28736.00
2022-08-30T10:46:50.173Z,28288.00
2022-08-30T10:47:50.320Z,28512.00
2022-08-30T10:48:50.180Z,29088.00
2022-08-30T10:49:50.150Z,30272.00
2022-08-30T10:50:50.146Z,31392.00
2022-08-30T10:51:50.129Z,32160.00
2022-08-30T10:52:50.124Z,31776.00
2022-08-30T10:53:50.153Z,31296.00
2022-08-30T10:54:50.090Z,33216.00
2022-08-30T10:55:50.355Z,28608.00
2022-08-30T10:56:50.100Z,28608.00
2022-08-30T10:57:50.062Z,28544.00
2022-08-30T10:58:50.070Z,28096.00
2022-08-30T10:59:50.211Z,28800.00
2022-08-30T11:00:50.149Z,27680.00
2022-08-30T11:01:50.116Z,32800.00
2022-08-30T11:02:50.009Z,30656.00
2022-08-30T11:03:50.008Z,30304.00
2022-08-30T11:04:50.654Z,31584.00
2022-08-30T11:05:49.998Z,35168.00
2022-08-30T11:06:53.907Z,64896.00
2022-08-30T11:07:52.109Z,86112.00
2022-08-30T11:08:49.946Z,76096.00
2022-08-30T11:09:49.972Z,52768.00
2022-08-30T11:10:50.104Z,39968.00
2022-08-30T11:11:49.918Z,37888.00
2022-08-30T11:12:49.962Z,36224.00
2022-08-30T11:13:51.673Z,35456.00
2022-08-30T11:14:49.899Z,35552.00
2022-08-30T11:15:49.901Z,37248.00
2022-08-30T11:16:49.878Z,36416.00
2022-08-30T11:17:49.853Z,36224.00
2022-08-30T11:18:51.044Z,35328.00
2022-08-30T11:19:49.857Z,34368.00
2022-08-30T11:20:49.837Z,34624.00
2022-08-30T11:21:49.828Z,56448.00
2022-08-30T11:22:49.814Z,71936.00
2022-08-30T11:23:49.793Z,37056.00
2022-08-30T11:24:49.805Z,35616.00
2022-08-30T11:25:53.259Z,34080.00
2022-08-30T11:26:50.824Z,34240.00
2022-08-30T11:27:51.647Z,34368.00
2022-08-30T11:28:49.769Z,33280.00
2022-08-30T11:29:49.740Z,32448.00
2022-08-30T11:30:49.734Z,31744.00
2022-08-30T11:31:49.746Z,31232.00
2022-08-30T11:32:49.699Z,30880.00
2022-08-30T11:33:49.723Z,30016.00
2022-08-30T11:34:49.687Z,28704.00
2022-08-30T11:35:49.679Z,27328.00
2022-08-30T11:36:49.703Z,26208.00
2022-08-30T11:37:50.657Z,25344.00
2022-08-30T11:38:49.644Z,25280.00
2022-08-30T11:39:49.634Z,25664.00
2022-08-30T11:40:49.616Z,26432.00
2022-08-30T11:41:49.607Z,26560.00
2022-08-30T11:42:49.647Z,26944.00
2022-08-30T11:43:49.598Z,27712.00
2022-08-30T11:44:49.598Z,27744.00
2022-08-30T11:45:49.608Z,27456.00
2022-08-30T11:46:49.625Z,27456.00
2022-08-30T11:47:49.567Z,27200.00
2022-08-30T11:48:54.290Z,27616.00
2022-08-30T11:49:50.524Z,28256.00
2022-08-30T11:50:49.509Z,29664.00
2022-08-30T11:52:08.280Z,30624.00
2022-08-30T11:52:50.511Z,30976.00
2022-08-30T11:53:49.932Z,30016.00
2022-08-30T11:54:52.869Z,28736.00
2022-08-30T11:55:49.578Z,26624.00
2022-08-30T11:56:49.447Z,24800.00
2022-08-30T11:57:49.911Z,23360.00
2022-08-30T11:58:49.476Z,23040.00
2022-08-30T11:59:49.418Z,23456.00
2022-08-30T12:00:52.817Z,23616.00
2022-08-30T12:01:51.983Z,23584.00
2022-08-30T12:02:49.532Z,22944.00
2022-08-30T12:03:49.371Z,22432.00
2022-08-30T12:04:49.467Z,21888.00
2022-08-30T12:05:49.381Z,21024.00
2022-08-30T12:06:49.345Z,20128.00
2022-08-30T12:07:49.352Z,19008.00
2022-08-30T12:08:49.327Z,18236.00
2022-08-30T12:09:49.326Z,17872.00
2022-08-30T12:10:49.372Z,17820.00
2022-08-30T12:11:49.286Z,17824.00
2022-08-30T12:12:49.292Z,17464.00
2022-08-30T12:13:49.279Z,17448.00
2022-08-30T12:14:49.281Z,17568.00
2022-08-30T12:15:49.263Z,17760.00
2022-08-30T12:17:00.516Z,18432.00
2022-08-30T12:17:50.675Z,19904.00
2022-08-30T12:18:49.214Z,22496.00